sensor_id;sensor_type;location;lat;lon;timestamp;P1;durP1;ratioP1;P2;durP2;ratioP2
66485;SDS011;53303;47.476;8.084;2023-04-01T00:01:27;6.07;;;1.10;;
66485;SDS011;53303;47.476;8.084;2023-04-01T00:03:53;7.40;;;1.45;;
66485;SDS011;53303;47.476;8.084;2023-04-01T00:06:21;4.80;;;1.13;;
66485;SDS011;53303;47.476;8.084;2023-04-01T00:08:47;5.53;;;1.10;;
66485;SDS011;53303;47.476;8.084;2023-04-01T00:11:16;4.15;;;0.98;;
66485;SDS011;53303;47.476;8.084;2023-04-01T00:13:42;4.13;;;1.20;;
66485;SDS011;53303;47.476;8.084;2023-04-01T00:16:10;8.38;;;1.30;;
66485;SDS011;53303;47.476;8.084;2023-04-01T00:18:38;5.97;;;1.33;;
66485;SDS011;53303;47.476;8.084;2023-04-01T00:21:04;6.82;;;0.95;;
66485;SDS011;53303;47.476;8.084;2023-04-01T00:23:30;7.30;;;1.20;;
66485;SDS011;53303;47.476;8.084;2023-04-01T00:25:55;4.38;;;0.80;;
66485;SDS011;53303;47.476;8.084;2023-04-01T00:28:21;2.90;;;0.73;;
66485;SDS011;53303;47.476;8.084;2023-04-01T00:30:46;8.48;;;1.30;;
66485;SDS011;53303;47.476;8.084;2023-04-01T00:33:13;6.35;;;1.10;;
66485;SDS011;53303;47.476;8.084;2023-04-01T00:35:38;4.30;;;1.00;;
66485;SDS011;53303;47.476;8.084;2023-04-01T00:38:04;8.10;;;1.17;;
66485;SDS011;53303;47.476;8.084;2023-04-01T00:40:39;6.18;;;1.00;;
66485;SDS011;53303;47.476;8.084;2023-04-01T00:43:14;4.85;;;0.98;;
66485;SDS011;53303;47.476;8.084;2023-04-01T00:45:43;4.15;;;1.20;;
66485;SDS011;53303;47.476;8.084;2023-04-01T00:51:06;5.10;;;1.40;;
66485;SDS011;53303;47.476;8.084;2023-04-01T00:53:36;4.40;;;1.10;;
66485;SDS011;53303;47.476;8.084;2023-04-01T00:58:43;4.28;;;1.10;;
66485;SDS011;53303;47.476;8.084;2023-04-01T01:01:20;6.45;;;0.90;;
66485;SDS011;53303;47.476;8.084;2023-04-01T01:03:47;3.75;;;0.90;;
66485;SDS011;53303;47.476;8.084;2023-04-01T01:11:42;4.13;;;1.02;;
66485;SDS011;53303;47.476;8.084;2023-04-01T01:17:19;3.95;;;1.10;;
66485;SDS011;53303;47.476;8.084;2023-04-01T01:20:13;4.45;;;1.00;;
66485;SDS011;53303;47.476;8.084;2023-04-01T01:26:07;5.55;;;0.82;;
66485;SDS011;53303;47.476;8.084;2023-04-01T01:36:59;5.80;;;0.93;;
66485;SDS011;53303;47.476;8.084;2023-04-01T01:39:30;3.40;;;1.00;;
66485;SDS011;53303;47.476;8.084;2023-04-01T01:42:00;2.85;;;0.70;;
66485;SDS011;53303;47.476;8.084;2023-04-01T01:44:28;7.03;;;0.93;;
66485;SDS011;53303;47.476;8.084;2023-04-01T01:46:55;3.88;;;0.88;;
66485;SDS011;53303;47.476;8.084;2023-04-01T01:49:25;3.13;;;0.90;;
66485;SDS011;53303;47.476;8.084;2023-04-01T01:51:52;3.63;;;1.00;;
66485;SDS011;53303;47.476;8.084;2023-04-01T01:54:20;6.15;;;0.90;;
66485;SDS011;53303;47.476;8.084;2023-04-01T01:56:49;2.88;;;1.00;;
66485;SDS011;53303;47.476;8.084;2023-04-01T01:59:19;4.45;;;0.70;;
66485;SDS011;53303;47.476;8.084;2023-04-01T02:01:51;8.10;;;1.10;;
66485;SDS011;53303;47.476;8.084;2023-04-01T02:04:19;7.05;;;0.95;;
66485;SDS011;53303;47.476;8.084;2023-04-01T02:06:48;6.07;;;1.02;;
66485;SDS011;53303;47.476;8.084;2023-04-01T02:09:18;4.53;;;1.00;;
66485;SDS011;53303;47.476;8.084;2023-04-01T02:11:48;3.85;;;0.90;;
66485;SDS011;53303;47.476;8.084;2023-04-01T02:14:59;3.08;;;1.10;;
66485;SDS011;53303;47.476;8.084;2023-04-01T02:17:33;5.20;;;0.77;;
66485;SDS011;53303;47.476;8.084;2023-04-01T02:20:19;3.22;;;0.68;;
66485;SDS011;53303;47.476;8.084;2023-04-01T02:22:52;3.78;;;0.70;;
66485;SDS011;53303;47.476;8.084;2023-04-01T02:27:48;2.70;;;0.73;;
66485;SDS011;53303;47.476;8.084;2023-04-01T02:30:14;4.15;;;1.10;;
66485;SDS011;53303;47.476;8.084;2023-04-01T02:32:41;4.97;;;0.90;;
66485;SDS011;53303;47.476;8.084;2023-04-01T02:35:11;3.15;;;0.88;;
66485;SDS011;53303;47.476;8.084;2023-04-01T02:37:39;4.10;;;0.90;;
66485;SDS011;53303;47.476;8.084;2023-04-01T02:40:08;3.70;;;0.80;;
66485;SDS011;53303;47.476;8.084;2023-04-01T02:42:35;3.22;;;1.05;;
66485;SDS011;53303;47.476;8.084;2023-04-01T02:45:03;4.15;;;0.90;;
66485;SDS011;53303;47.476;8.084;2023-04-01T02:47:32;4.55;;;1.00;;
66485;SDS011;53303;47.476;8.084;2023-04-01T02:50:02;3.65;;;0.82;;
66485;SDS011;53303;47.476;8.084;2023-04-01T02:52:29;4.35;;;0.85;;
66485;SDS011;53303;47.476;8.084;2023-04-01T02:54:56;5.80;;;0.80;;
66485;SDS011;53303;47.476;8.084;2023-04-01T02:57:24;1.50;;;0.73;;
66485;SDS011;53303;47.476;8.084;2023-04-01T02:59:50;2.10;;;0.60;;
66485;SDS011;53303;47.476;8.084;2023-04-01T03:02:16;2.45;;;0.60;;
66485;SDS011;53303;47.476;8.084;2023-04-01T03:04:44;4.05;;;0.85;;
66485;SDS011;53303;47.476;8.084;2023-04-01T03:07:10;5.10;;;0.85;;
66485;SDS011;53303;47.476;8.084;2023-04-01T03:09:39;3.25;;;0.80;;
66485;SDS011;53303;47.476;8.084;2023-04-01T03:12:05;3.60;;;0.70;;
66485;SDS011;53303;47.476;8.084;2023-04-01T03:14:31;4.22;;;1.00;;
66485;SDS011;53303;47.476;8.084;2023-04-01T03:16:56;5.13;;;1.25;;
66485;SDS011;53303;47.476;8.084;2023-04-01T03:19:24;4.00;;;0.80;;
66485;SDS011;53303;47.476;8.084;2023-04-01T03:21:50;5.10;;;1.00;;
66485;SDS011;53303;47.476;8.084;2023-04-01T03:24:19;4.82;;;0.70;;
66485;SDS011;53303;47.476;8.084;2023-04-01T03:26:49;3.47;;;0.65;;
66485;SDS011;53303;47.476;8.084;2023-04-01T03:29:19;3.00;;;0.68;;
66485;SDS011;53303;47.476;8.084;2023-04-01T03:31:49;2.15;;;0.63;;
66485;SDS011;53303;47.476;8.084;2023-04-01T03:34:15;3.50;;;0.77;;
66485;SDS011;53303;47.476;8.084;2023-04-01T03:36:42;2.78;;;0.90;;
66485;SDS011;53303;47.476;8.084;2023-04-01T03:39:08;3.42;;;1.15;;
66485;SDS011;53303;47.476;8.084;2023-04-01T03:41:38;2.92;;;0.80;;
66485;SDS011;53303;47.476;8.084;2023-04-01T03:44:06;3.35;;;0.70;;
66485;SDS011;53303;47.476;8.084;2023-04-01T03:46:32;1.92;;;0.60;;
66485;SDS011;53303;47.476;8.084;2023-04-01T03:48:57;3.72;;;0.70;;
66485;SDS011;53303;47.476;8.084;2023-04-01T03:51:23;2.92;;;0.85;;
66485;SDS011;53303;47.476;8.084;2023-04-01T03:53:48;3.22;;;0.70;;
66485;SDS011;53303;47.476;8.084;2023-04-01T03:56:17;2.58;;;0.70;;
66485;SDS011;53303;47.476;8.084;2023-04-01T03:58:47;4.15;;;0.60;;
66485;SDS011;53303;47.476;8.084;2023-04-01T04:01:17;1.67;;;0.57;;
66485;SDS011;53303;47.476;8.084;2023-04-01T04:03:46;4.00;;;0.63;;
66485;SDS011;53303;47.476;8.084;2023-04-01T04:06:13;2.63;;;0.90;;
66485;SDS011;53303;47.476;8.084;2023-04-01T04:08:42;1.38;;;0.57;;
66485;SDS011;53303;47.476;8.084;2023-04-01T04:11:07;4.05;;;0.80;;
66485;SDS011;53303;47.476;8.084;2023-04-01T04:13:33;3.30;;;0.63;;
66485;SDS011;53303;47.476;8.084;2023-04-01T04:16:04;3.38;;;0.90;;
66485;SDS011;53303;47.476;8.084;2023-04-01T04:18:30;4.53;;;0.75;;
66485;SDS011;53303;47.476;8.084;2023-04-01T04:20:58;4.03;;;0.93;;
66485;SDS011;53303;47.476;8.084;2023-04-01T04:23:24;3.15;;;0.70;;
66485;SDS011;53303;47.476;8.084;2023-04-01T04:26:00;7.35;;;1.00;;
66485;SDS011;53303;47.476;8.084;2023-04-01T04:28:29;2.33;;;0.80;;
66485;SDS011;53303;47.476;8.084;2023-04-01T04:30:57;2.72;;;0.60;;
66485;SDS011;53303;47.476;8.084;2023-04-01T04:33:22;2.20;;;0.63;;
66485;SDS011;53303;47.476;8.084;2023-04-01T04:35:48;2.95;;;0.88;;
66485;SDS011;53303;47.476;8.084;2023-04-01T04:38:17;3.38;;;1.00;;
66485;SDS011;53303;47.476;8.084;2023-04-01T04:40:42;2.28;;;0.70;;
66485;SDS011;53303;47.476;8.084;2023-04-01T04:43:11;2.85;;;0.98;;
66485;SDS011;53303;47.476;8.084;2023-04-01T04:45:38;3.92;;;0.90;;
66485;SDS011;53303;47.476;8.084;2023-04-01T04:48:04;5.05;;;0.90;;
66485;SDS011;53303;47.476;8.084;2023-04-01T04:50:31;10.63;;;0.90;;
66485;SDS011;53303;47.476;8.084;2023-04-01T04:52:56;4.15;;;0.80;;
66485;SDS011;53303;47.476;8.084;2023-04-01T04:55:22;3.25;;;0.70;;
66485;SDS011;53303;47.476;8.084;2023-04-01T04:57:47;3.22;;;0.73;;
66485;SDS011;53303;47.476;8.084;2023-04-01T05:00:13;3.63;;;1.05;;
66485;SDS011;53303;47.476;8.084;2023-04-01T05:02:41;4.75;;;0.82;;
66485;SDS011;53303;47.476;8.084;2023-04-01T05:05:09;2.08;;;0.68;;
66485;SDS011;53303;47.476;8.084;2023-04-01T05:07:35;2.95;;;0.70;;
66485;SDS011;53303;47.476;8.084;2023-04-01T05:10:03;3.53;;;0.75;;
66485;SDS011;53303;47.476;8.084;2023-04-01T05:12:29;4.30;;;0.90;;
66485;SDS011;53303;47.476;8.084;2023-04-01T05:14:54;2.40;;;0.60;;
66485;SDS011;53303;47.476;8.084;2023-04-01T05:17:22;5.38;;;1.00;;
66485;SDS011;53303;47.476;8.084;2023-04-01T05:19:48;2.22;;;0.73;;
66485;SDS011;53303;47.476;8.084;2023-04-01T05:22:15;2.45;;;0.63;;
66485;SDS011;53303;47.476;8.084;2023-04-01T05:24:45;3.30;;;0.70;;
66485;SDS011;53303;47.476;8.084;2023-04-01T05:27:11;2.40;;;0.60;;
66485;SDS011;53303;47.476;8.084;2023-04-01T05:29:36;5.90;;;0.95;;
66485;SDS011;53303;47.476;8.084;2023-04-01T05:32:02;5.40;;;1.00;;
66485;SDS011;53303;47.476;8.084;2023-04-01T05:34:27;3.10;;;0.95;;
66485;SDS011;53303;47.476;8.084;2023-04-01T05:36:55;3.22;;;0.80;;
66485;SDS011;53303;47.476;8.084;2023-04-01T05:39:21;5.60;;;0.90;;
66485;SDS011;53303;47.476;8.084;2023-04-01T05:41:46;4.35;;;0.90;;
66485;SDS011;53303;47.476;8.084;2023-04-01T05:44:12;3.50;;;0.60;;
66485;SDS011;53303;47.476;8.084;2023-04-01T05:46:40;3.17;;;0.50;;
66485;SDS011;53303;47.476;8.084;2023-04-01T05:49:06;4.53;;;0.70;;
66485;SDS011;53303;47.476;8.084;2023-04-01T05:51:32;3.08;;;0.88;;
66485;SDS011;53303;47.476;8.084;2023-04-01T05:53:57;3.22;;;0.70;;
66485;SDS011;53303;47.476;8.084;2023-04-01T05:56:22;2.80;;;0.80;;
66485;SDS011;53303;47.476;8.084;2023-04-01T05:58:51;4.07;;;0.73;;
66485;SDS011;53303;47.476;8.084;2023-04-01T06:01:18;3.83;;;0.88;;
66485;SDS011;53303;47.476;8.084;2023-04-01T06:03:44;5.68;;;0.80;;
66485;SDS011;53303;47.476;8.084;2023-04-01T06:06:16;6.30;;;1.02;;
66485;SDS011;53303;47.476;8.084;2023-04-01T06:08:52;4.28;;;0.70;;
66485;SDS011;53303;47.476;8.084;2023-04-01T06:20:10;4.63;;;0.80;;
66485;SDS011;53303;47.476;8.084;2023-04-01T06:22:51;5.07;;;0.90;;
66485;SDS011;53303;47.476;8.084;2023-04-01T06:50:30;11.75;;;1.30;;
66485;SDS011;53303;47.476;8.084;2023-04-01T06:56:06;11.40;;;1.55;;
66485;SDS011;53303;47.476;8.084;2023-04-01T07:01:18;10.35;;;1.00;;
66485;SDS011;53303;47.476;8.084;2023-04-01T07:09:02;9.88;;;1.00;;
66485;SDS011;53303;47.476;8.084;2023-04-01T07:11:31;8.13;;;0.95;;
66485;SDS011;53303;47.476;8.084;2023-04-01T07:16:42;8.68;;;1.40;;
66485;SDS011;53303;47.476;8.084;2023-04-01T07:19:23;9.32;;;1.30;;
66485;SDS011;53303;47.476;8.084;2023-04-01T07:21:55;7.60;;;1.00;;
66485;SDS011;53303;47.476;8.084;2023-04-01T07:24:29;8.27;;;1.35;;
66485;SDS011;53303;47.476;8.084;2023-04-01T07:27:02;5.07;;;1.15;;
66485;SDS011;53303;47.476;8.084;2023-04-01T07:29:30;8.23;;;1.13;;
66485;SDS011;53303;47.476;8.084;2023-04-01T07:32:13;4.82;;;1.10;;
66485;SDS011;53303;47.476;8.084;2023-04-01T07:34:51;10.15;;;1.20;;
66485;SDS011;53303;47.476;8.084;2023-04-01T07:43:00;4.47;;;0.70;;
66485;SDS011;53303;47.476;8.084;2023-04-01T07:45:33;9.30;;;1.35;;
66485;SDS011;53303;47.476;8.084;2023-04-01T07:54:23;4.38;;;0.90;;
66485;SDS011;53303;47.476;8.084;2023-04-01T07:57:02;2.78;;;0.80;;
66485;SDS011;53303;47.476;8.084;2023-04-01T07:59:40;7.05;;;1.05;;
66485;SDS011;53303;47.476;8.084;2023-04-01T08:02:38;4.10;;;0.75;;
66485;SDS011;53303;47.476;8.084;2023-04-01T08:19:38;2.05;;;0.73;;
66485;SDS011;53303;47.476;8.084;2023-04-01T08:22:41;4.00;;;0.80;;
66485;SDS011;53303;47.476;8.084;2023-04-01T08:25:09;3.72;;;0.98;;
66485;SDS011;53303;47.476;8.084;2023-04-01T08:27:44;4.13;;;0.90;;
66485;SDS011;53303;47.476;8.084;2023-04-01T08:33:25;2.72;;;0.65;;
66485;SDS011;53303;47.476;8.084;2023-04-01T08:36:09;3.70;;;0.93;;
66485;SDS011;53303;47.476;8.084;2023-04-01T08:38:43;6.65;;;1.20;;
66485;SDS011;53303;47.476;8.084;2023-04-01T08:52:20;5.50;;;0.88;;
66485;SDS011;53303;47.476;8.084;2023-04-01T09:22:40;2.85;;;0.80;;
66485;SDS011;53303;47.476;8.084;2023-04-01T09:49:43;1.70;;;0.60;;
66485;SDS011;53303;47.476;8.084;2023-04-01T10:44:29;6.68;;;1.65;;
66485;SDS011;53303;47.476;8.084;2023-04-01T10:47:12;6.63;;;1.67;;
66485;SDS011;53303;47.476;8.084;2023-04-01T11:01:03;5.40;;;1.20;;
66485;SDS011;53303;47.476;8.084;2023-04-01T11:20:52;5.65;;;1.40;;
66485;SDS011;53303;47.476;8.084;2023-04-01T11:40:27;3.85;;;1.30;;
66485;SDS011;53303;47.476;8.084;2023-04-01T11:46:07;3.28;;;1.27;;
66485;SDS011;53303;47.476;8.084;2023-04-01T12:03:38;6.45;;;1.20;;
66485;SDS011;53303;47.476;8.084;2023-04-01T12:16:50;5.05;;;1.00;;
66485;SDS011;53303;47.476;8.084;2023-04-01T12:19:39;7.72;;;1.10;;
66485;SDS011;53303;47.476;8.084;2023-04-01T12:24:46;4.80;;;1.15;;
66485;SDS011;53303;47.476;8.084;2023-04-01T12:30:08;3.80;;;1.00;;
66485;SDS011;53303;47.476;8.084;2023-04-01T12:52:07;3.83;;;1.25;;
66485;SDS011;53303;47.476;8.084;2023-04-01T13:03:35;2.25;;;0.95;;
66485;SDS011;53303;47.476;8.084;2023-04-01T13:17:00;3.95;;;1.08;;
66485;SDS011;53303;47.476;8.084;2023-04-01T13:41:01;3.53;;;1.00;;
66485;SDS011;53303;47.476;8.084;2023-04-01T13:51:26;4.13;;;0.80;;
66485;SDS011;53303;47.476;8.084;2023-04-01T14:08:04;5.15;;;1.25;;
66485;SDS011;53303;47.476;8.084;2023-04-01T14:10:50;3.85;;;1.05;;
66485;SDS011;53303;47.476;8.084;2023-04-01T14:13:43;3.13;;;0.80;;
66485;SDS011;53303;47.476;8.084;2023-04-01T14:19:15;3.17;;;1.00;;
66485;SDS011;53303;47.476;8.084;2023-04-01T14:25:05;3.33;;;0.88;;
66485;SDS011;53303;47.476;8.084;2023-04-01T14:32:52;3.38;;;0.70;;
66485;SDS011;53303;47.476;8.084;2023-04-01T14:35:53;2.55;;;0.90;;
66485;SDS011;53303;47.476;8.084;2023-04-01T14:49:04;5.10;;;1.30;;
66485;SDS011;53303;47.476;8.084;2023-04-01T14:51:42;5.40;;;0.73;;
66485;SDS011;53303;47.476;8.084;2023-04-01T14:59:25;2.65;;;1.05;;
66485;SDS011;53303;47.476;8.084;2023-04-01T15:07:11;5.55;;;0.85;;
66485;SDS011;53303;47.476;8.084;2023-04-01T15:10:08;4.30;;;0.90;;
66485;SDS011;53303;47.476;8.084;2023-04-01T15:15:34;5.03;;;0.90;;
66485;SDS011;53303;47.476;8.084;2023-04-01T15:21:00;7.60;;;1.10;;
66485;SDS011;53303;47.476;8.084;2023-04-01T15:23:37;4.38;;;0.93;;
66485;SDS011;53303;47.476;8.084;2023-04-01T15:48:46;6.65;;;1.27;;
66485;SDS011;53303;47.476;8.084;2023-04-01T16:10:59;3.92;;;0.90;;
66485;SDS011;53303;47.476;8.084;2023-04-01T16:24:30;8.70;;;1.35;;
66485;SDS011;53303;47.476;8.084;2023-04-01T16:29:48;5.43;;;1.40;;
66485;SDS011;53303;47.476;8.084;2023-04-01T16:38:09;4.50;;;0.80;;
66485;SDS011;53303;47.476;8.084;2023-04-01T16:43:25;7.95;;;1.35;;
66485;SDS011;53303;47.476;8.084;2023-04-01T16:48:24;3.42;;;0.82;;
66485;SDS011;53303;47.476;8.084;2023-04-01T16:50:59;7.22;;;1.10;;
66485;SDS011;53303;47.476;8.084;2023-04-01T16:56:45;4.65;;;1.38;;
66485;SDS011;53303;47.476;8.084;2023-04-01T16:59:22;7.18;;;1.27;;
66485;SDS011;53303;47.476;8.084;2023-04-01T17:02:02;8.80;;;1.58;;
66485;SDS011;53303;47.476;8.084;2023-04-01T17:04:39;6.80;;;1.30;;
66485;SDS011;53303;47.476;8.084;2023-04-01T17:18:43;6.55;;;1.30;;
66485;SDS011;53303;47.476;8.084;2023-04-01T17:27:21;13.13;;;1.88;;
66485;SDS011;53303;47.476;8.084;2023-04-01T17:30:14;26.52;;;3.03;;
66485;SDS011;53303;47.476;8.084;2023-04-01T17:35:31;152.15;;;12.48;;
66485;SDS011;53303;47.476;8.084;2023-04-01T17:38:06;162.80;;;14.65;;
66485;SDS011;53303;47.476;8.084;2023-04-01T17:40:41;111.03;;;12.02;;
66485;SDS011;53303;47.476;8.084;2023-04-01T17:57:46;69.47;;;6.65;;
66485;SDS011;53303;47.476;8.084;2023-04-01T18:13:46;42.00;;;4.20;;
66485;SDS011;53303;47.476;8.084;2023-04-01T18:19:35;38.00;;;4.68;;
66485;SDS011;53303;47.476;8.084;2023-04-01T18:22:26;42.22;;;4.97;;
66485;SDS011;53303;47.476;8.084;2023-04-01T18:25:18;40.72;;;3.80;;
66485;SDS011;53303;47.476;8.084;2023-04-01T18:30:34;38.20;;;3.92;;
66485;SDS011;53303;47.476;8.084;2023-04-01T18:35:54;36.17;;;3.90;;
66485;SDS011;53303;47.476;8.084;2023-04-01T18:38:35;36.25;;;4.53;;
66485;SDS011;53303;47.476;8.084;2023-04-01T18:41:25;28.55;;;3.80;;
66485;SDS011;53303;47.476;8.084;2023-04-01T18:49:29;34.50;;;3.88;;
66485;SDS011;53303;47.476;8.084;2023-04-01T18:57:52;30.77;;;3.55;;
66485;SDS011;53303;47.476;8.084;2023-04-01T19:00:28;35.10;;;4.07;;
66485;SDS011;53303;47.476;8.084;2023-04-01T19:05:54;24.13;;;3.25;;
66485;SDS011;53303;47.476;8.084;2023-04-01T19:08:32;25.13;;;3.25;;
66485;SDS011;53303;47.476;8.084;2023-04-01T19:19:29;21.27;;;3.05;;
66485;SDS011;53303;47.476;8.084;2023-04-01T19:22:21;23.67;;;3.08;;
66485;SDS011;53303;47.476;8.084;2023-04-01T19:27:50;24.70;;;2.65;;
66485;SDS011;53303;47.476;8.084;2023-04-01T19:33:31;21.33;;;2.65;;
66485;SDS011;53303;47.476;8.084;2023-04-01T19:47:13;20.50;;;2.60;;
66485;SDS011;53303;47.476;8.084;2023-04-01T19:49:53;26.13;;;2.55;;
66485;SDS011;53303;47.476;8.084;2023-04-01T19:52:32;18.85;;;3.03;;
66485;SDS011;53303;47.476;8.084;2023-04-01T19:55:02;22.23;;;2.10;;
66485;SDS011;53303;47.476;8.084;2023-04-01T19:58:06;17.48;;;2.53;;
66485;SDS011;53303;47.476;8.084;2023-04-01T20:00:41;17.38;;;2.45;;
66485;SDS011;53303;47.476;8.084;2023-04-01T20:03:20;17.67;;;3.10;;
66485;SDS011;53303;47.476;8.084;2023-04-01T20:06:02;19.33;;;2.53;;
66485;SDS011;53303;47.476;8.084;2023-04-01T20:08:41;11.95;;;2.05;;
66485;SDS011;53303;47.476;8.084;2023-04-01T20:16:16;16.60;;;2.13;;
66485;SDS011;53303;47.476;8.084;2023-04-01T20:18:58;16.48;;;2.40;;
66485;SDS011;53303;47.476;8.084;2023-04-01T20:24:13;12.75;;;1.92;;
66485;SDS011;53303;47.476;8.084;2023-04-01T20:29:40;15.07;;;2.60;;
66485;SDS011;53303;47.476;8.084;2023-04-01T20:37:57;14.70;;;2.60;;
66485;SDS011;53303;47.476;8.084;2023-04-01T20:51:21;12.40;;;1.88;;
66485;SDS011;53303;47.476;8.084;2023-04-01T21:04:30;11.30;;;1.80;;
66485;SDS011;53303;47.476;8.084;2023-04-01T21:38:00;13.73;;;2.63;;
66485;SDS011;53303;47.476;8.084;2023-04-01T21:40:54;14.40;;;2.05;;
66485;SDS011;53303;47.476;8.084;2023-04-01T21:52:04;11.20;;;1.65;;
66485;SDS011;53303;47.476;8.084;2023-04-01T22:11:30;16.33;;;1.70;;
66485;SDS011;53303;47.476;8.084;2023-04-01T22:14:42;10.90;;;1.88;;
66485;SDS011;53303;47.476;8.084;2023-04-01T22:28:07;11.07;;;1.85;;
66485;SDS011;53303;47.476;8.084;2023-04-01T22:30:50;8.93;;;1.58;;
66485;SDS011;53303;47.476;8.084;2023-04-01T22:52:39;11.90;;;1.55;;
66485;SDS011;53303;47.476;8.084;2023-04-01T22:55:16;8.07;;;1.50;;
66485;SDS011;53303;47.476;8.084;2023-04-01T22:57:52;7.57;;;1.40;;
66485;SDS011;53303;47.476;8.084;2023-04-01T23:03:01;8.93;;;1.20;;
66485;SDS011;53303;47.476;8.084;2023-04-01T23:05:29;7.85;;;1.70;;
66485;SDS011;53303;47.476;8.084;2023-04-01T23:07:56;9.45;;;1.80;;
66485;SDS011;53303;47.476;8.084;2023-04-01T23:13:06;6.95;;;1.17;;
66485;SDS011;53303;47.476;8.084;2023-04-01T23:15:44;7.03;;;1.42;;
66485;SDS011;53303;47.476;8.084;2023-04-01T23:18:16;8.52;;;1.33;;
66485;SDS011;53303;47.476;8.084;2023-04-01T23:20:52;6.35;;;1.20;;
66485;SDS011;53303;47.476;8.084;2023-04-01T23:26:20;7.72;;;1.40;;
66485;SDS011;53303;47.476;8.084;2023-04-01T23:31:35;7.18;;;1.45;;
66485;SDS011;53303;47.476;8.084;2023-04-01T23:34:25;2.88;;;0.85;;
66485;SDS011;53303;47.476;8.084;2023-04-01T23:37:11;8.88;;;1.10;;
66485;SDS011;53303;47.476;8.084;2023-04-01T23:39:45;4.88;;;1.00;;
66485;SDS011;53303;47.476;8.084;2023-04-01T23:42:26;10.77;;;1.35;;
66485;SDS011;53303;47.476;8.084;2023-04-01T23:45:02;8.82;;;1.40;;
66485;SDS011;53303;47.476;8.084;2023-04-01T23:47:30;6.63;;;1.33;;
66485;SDS011;53303;47.476;8.084;2023-04-01T23:50:03;4.38;;;1.25;;
66485;SDS011;53303;47.476;8.084;2023-04-01T23:52:58;6.32;;;1.00;;
66485;SDS011;53303;47.476;8.084;2023-04-01T23:55:29;7.60;;;1.35;;
66485;SDS011;53303;47.476;8.084;2023-04-01T23:58:00;6.88;;;1.35;;
